Time;durP1;ratioP1;P1;durP2;ratioP2;P2;SDS_P1;SDS_P2;PMS_P1;PMS_P2;Temp;Humidity;BMP_temperature;BMP_pressure;BME280_temperature;BME280_humidity;BME280_pressure;Samples;Min_cycle;Max_cycle;Signal;HPM_P1;HPM_P2
2023/09/10 00:00:49;;;;;;;7.25;6.03;;;;;;;;;;5055962;28;20104;-59
2023/09/10 00:03:15;;;;;;;7.00;6.30;;;;;;;;;;5056409;28;20029;-59
2023/09/10 00:05:41;;;;;;;7.88;7.05;;;;;;;;;;5056268;28;20090;-59
2023/09/10 00:08:07;;;;;;;10.45;6.45;;;;;;;;;;5055660;28;20021;-59
2023/09/10 00:10:33;;;;;;;7.82;6.88;;;;;;;;;;5054863;28;20028;-59
2023/09/10 00:12:59;;;;;;;9.60;6.15;;;;;;;;;;5055101;28;20021;-59
2023/09/10 00:15:25;;;;;;;7.45;6.45;;;;;;;;;;5055382;28;20470;-59
2023/09/10 00:17:52;;;;;;;7.28;6.18;;;;;;;;;;5055424;28;20032;-59
2023/09/10 00:20:18;;;;;;;7.32;6.63;;;;;;;;;;5055574;28;20476;-59
2023/09/10 00:22:44;;;;;;;9.80;6.05;;;;;;;;;;5055573;28;20117;-59
2023/09/10 00:25:10;;;;;;;7.07;6.25;;;;;;;;;;5055239;28;20524;-59
2023/09/10 00:27:36;;;;;;;6.90;5.68;;;;;;;;;;5055624;28;20013;-59
2023/09/10 00:30:03;;;;;;;7.80;6.75;;;;;;;;;;5055689;28;20461;-59
2023/09/10 00:32:29;;;;;;;8.25;6.35;;;;;;;;;;5055057;28;20032;-59
2023/09/10 00:34:55;;;;;;;7.60;6.57;;;;;;;;;;5055040;28;20386;-59
2023/09/10 00:37:21;;;;;;;8.68;6.13;;;;;;;;;;5054638;28;20037;-59
2023/09/10 00:39:47;;;;;;;7.68;6.32;;;;;;;;;;5055750;28;20071;-61
2023/09/10 00:42:13;;;;;;;7.97;7.18;;;;;;;;;;5055217;28;20447;-60
2023/09/10 00:44:41;;;;;;;11.30;6.78;;;;;;;;;;5055359;28;20383;-59
2023/09/10 00:47:07;;;;;;;8.77;7.07;;;;;;;;;;5054741;28;20025;-59
2023/09/10 00:49:33;;;;;;;8.23;6.85;;;;;;;;;;5054474;28;20028;-59
2023/09/10 00:52:01;;;;;;;7.78;6.85;;;;;;;;;;5054770;28;20478;-59
2023/09/10 00:54:31;;;;;;;13.75;6.45;;;;;;;;;;5054314;28;20029;-59
2023/09/10 00:56:57;;;;;;;8.25;7.05;;;;;;;;;;5055421;28;20036;-59
2023/09/10 00:59:23;;;;;;;8.88;6.65;;;;;;;;;;5055389;28;20017;-59
2023/09/10 01:01:50;;;;;;;7.03;6.40;;;;;;;;;;5055046;28;20371;-59
2023/09/10 01:04:17;;;;;;;8.15;6.60;;;;;;;;;;5054461;28;20025;-59
2023/09/10 01:06:43;;;;;;;8.35;7.13;;;;;;;;;;5054678;28;20105;-59
2023/09/10 01:09:09;;;;;;;6.40;5.70;;;;;;;;;;5055247;28;20448;-61
2023/09/10 01:11:50;;;;;;;6.90;6.28;;;;;;;;;;5054362;28;20138;-59
2023/09/10 01:14:18;;;;;;;8.98;7.30;;;;;;;;;;5054156;28;20039;-59
2023/09/10 01:16:50;;;;;;;7.32;6.03;;;;;;;;;;5054261;28;20123;-59
2023/09/10 01:19:23;;;;;;;7.55;5.82;;;;;;;;;;5054498;28;20413;-59
2023/09/10 01:22:01;;;;;;;9.48;5.95;;;;;;;;;;5054129;28;20028;-59
2023/09/10 01:24:43;;;;;;;8.45;5.95;;;;;;;;;;5054927;28;20390;-59
2023/09/10 01:27:09;;;;;;;7.38;6.13;;;;;;;;;;5054606;28;20115;-60
2023/09/10 01:29:35;;;;;;;7.47;6.70;;;;;;;;;;5054601;28;20047;-59
2023/09/10 01:32:05;;;;;;;7.47;6.20;;;;;;;;;;5053966;28;20108;-59
2023/09/10 01:34:34;;;;;;;7.28;5.78;;;;;;;;;;5054720;28;20360;-58
2023/09/10 01:37:06;;;;;;;8.30;6.07;;;;;;;;;;5053925;28;20137;-58
2023/09/10 01:39:36;;;;;;;9.32;6.15;;;;;;;;;;5054214;28;20029;-58
2023/09/10 01:42:04;;;;;;;7.82;7.00;;;;;;;;;;5054669;28;20025;-59
2023/09/10 01:44:31;;;;;;;8.20;6.63;;;;;;;;;;5054611;28;20412;-58
2023/09/10 01:46:58;;;;;;;7.93;6.95;;;;;;;;;;5053713;28;20336;-59
2023/09/10 01:49:24;;;;;;;7.80;6.97;;;;;;;;;;5054052;28;20029;-59
2023/09/10 01:51:50;;;;;;;7.60;6.80;;;;;;;;;;5053611;28;20056;-58
2023/09/10 01:54:16;;;;;;;8.13;7.30;;;;;;;;;;5054060;28;20063;-58
2023/09/10 01:56:42;;;;;;;11.50;7.57;;;;;;;;;;5053597;28;20025;-59
2023/09/10 01:59:07;;;;;;;7.18;6.45;;;;;;;;;;5054026;28;20021;-58
2023/09/10 02:01:33;;;;;;;9.70;7.10;;;;;;;;;;5053475;28;20079;-58
2023/09/10 02:03:59;;;;;;;10.90;7.70;;;;;;;;;;5053203;28;20017;-58
2023/09/10 02:06:25;;;;;;;8.43;7.63;;;;;;;;;;5053444;28;20021;-58
2023/09/10 02:08:51;;;;;;;8.38;7.57;;;;;;;;;;5053793;28;20344;-59
2023/09/10 02:11:19;;;;;;;9.75;8.70;;;;;;;;;;5054036;28;20021;-58
2023/09/10 02:13:45;;;;;;;11.63;7.72;;;;;;;;;;5053834;28;20394;-58
2023/09/10 02:16:11;;;;;;;8.55;7.75;;;;;;;;;;5053877;28;20036;-58
2023/09/10 02:18:37;;;;;;;8.27;7.47;;;;;;;;;;5053338;28;20113;-59
2023/09/10 02:21:10;;;;;;;10.48;8.70;;;;;;;;;;5053480;28;20029;-58
2023/09/10 02:23:36;;;;;;;9.30;8.25;;;;;;;;;;5053330;28;20095;-58
2023/09/10 02:26:02;;;;;;;9.75;8.80;;;;;;;;;;5053301;28;20098;-59
2023/09/10 02:28:28;;;;;;;10.05;9.13;;;;;;;;;;5053816;28;20021;-59
2023/09/10 02:30:54;;;;;;;11.35;8.15;;;;;;;;;;5054137;28;20033;-59
2023/09/10 02:33:20;;;;;;;9.30;7.93;;;;;;;;;;5056265;28;20033;-59
2023/09/10 02:35:46;;;;;;;10.52;8.30;;;;;;;;;;5058037;28;20021;-59
2023/09/10 02:38:12;;;;;;;9.00;7.78;;;;;;;;;;5057915;28;20478;-59
2023/09/10 02:40:38;;;;;;;10.73;7.57;;;;;;;;;;5057269;28;20418;-59
2023/09/10 02:43:04;;;;;;;10.68;8.00;;;;;;;;;;5057635;28;20021;-59
2023/09/10 02:45:30;;;;;;;9.63;8.73;;;;;;;;;;5057096;28;20021;-59
2023/09/10 02:47:56;;;;;;;9.20;8.15;;;;;;;;;;5057019;28;20033;-59
2023/09/10 02:50:22;;;;;;;10.15;9.05;;;;;;;;;;5057885;28;20355;-59
2023/09/10 02:52:48;;;;;;;14.55;8.05;;;;;;;;;;5057555;28;20071;-59
2023/09/10 02:55:16;;;;;;;12.10;8.57;;;;;;;;;;5056842;28;20044;-59
2023/09/10 02:57:42;;;;;;;8.25;7.28;;;;;;;;;;5056925;28;20049;-59
2023/09/10 03:00:10;;;;;;;9.23;8.32;;;;;;;;;;5056644;28;20044;-59
2023/09/10 03:02:36;;;;;;;10.68;7.70;;;;;;;;;;5057250;28;20017;-59
2023/09/10 03:05:02;;;;;;;9.88;8.02;;;;;;;;;;5057284;28;20025;-59
2023/09/10 03:07:28;;;;;;;10.05;8.82;;;;;;;;;;5056660;28;20481;-59
2023/09/10 03:09:54;;;;;;;9.57;8.57;;;;;;;;;;5057470;28;20451;-59
2023/09/10 03:12:21;;;;;;;10.45;8.82;;;;;;;;;;5056581;28;20111;-59
2023/09/10 03:14:47;;;;;;;10.75;8.27;;;;;;;;;;5056505;28;20134;-59
2023/09/10 03:17:13;;;;;;;9.93;8.73;;;;;;;;;;5057098;28;20021;-59
2023/09/10 03:19:40;;;;;;;9.23;8.27;;;;;;;;;;5056773;28;20063;-60
2023/09/10 03:22:06;;;;;;;10.43;9.35;;;;;;;;;;5056883;28;20032;-59
2023/09/10 03:24:35;;;;;;;10.70;9.07;;;;;;;;;;5056684;28;20029;-59
2023/09/10 03:27:01;;;;;;;9.45;7.75;;;;;;;;;;5056599;28;20417;-59
2023/09/10 03:29:27;;;;;;;10.35;8.25;;;;;;;;;;5056826;28;20013;-59
2023/09/10 03:31:53;;;;;;;10.68;9.57;;;;;;;;;;5056072;28;20025;-59
2023/09/10 03:34:19;;;;;;;13.10;8.50;;;;;;;;;;5056626;28;20029;-59
2023/09/10 03:36:45;;;;;;;9.52;7.97;;;;;;;;;;5056331;28;20041;-59
2023/09/10 03:39:12;;;;;;;10.05;8.68;;;;;;;;;;5056130;28;20075;-59
2023/09/10 03:41:38;;;;;;;10.07;9.00;;;;;;;;;;5056074;28;20057;-59
2023/09/10 03:44:04;;;;;;;10.73;9.40;;;;;;;;;;5056180;28;20045;-59
2023/09/10 03:46:30;;;;;;;10.98;9.02;;;;;;;;;;5055782;28;20371;-59
2023/09/10 03:48:56;;;;;;;9.50;8.55;;;;;;;;;;5056512;28;20024;-59
2023/09/10 03:51:22;;;;;;;10.77;9.35;;;;;;;;;;5056162;28;20547;-59
2023/09/10 03:53:47;;;;;;;13.32;8.77;;;;;;;;;;5055513;28;20124;-59
2023/09/10 03:56:14;;;;;;;10.88;9.77;;;;;;;;;;5056333;28;20028;-59
2023/09/10 03:58:40;;;;;;;13.68;9.68;;;;;;;;;;5055492;28;20477;-59
2023/09/10 04:01:06;;;;;;;10.00;9.02;;;;;;;;;;5056234;28;20029;-59
2023/09/10 04:03:32;;;;;;;11.32;9.93;;;;;;;;;;5056209;28;20029;-59
2023/09/10 04:05:57;;;;;;;10.05;9.05;;;;;;;;;;5055360;28;20037;-59
2023/09/10 04:08:23;;;;;;;10.68;9.30;;;;;;;;;;5056366;28;20048;-59
2023/09/10 04:10:49;;;;;;;12.35;9.00;;;;;;;;;;5056363;28;20024;-59
2023/09/10 04:13:15;;;;;;;11.48;9.90;;;;;;;;;;5055418;28;20064;-59
2023/09/10 04:15:41;;;;;;;10.77;9.77;;;;;;;;;;5055403;28;20036;-60
2023/09/10 04:18:07;;;;;;;12.75;9.45;;;;;;;;;;5055908;28;20332;-60
2023/09/10 04:20:33;;;;;;;9.65;8.68;;;;;;;;;;5055981;28;20508;-60
2023/09/10 04:22:59;;;;;;;9.98;8.93;;;;;;;;;;5055827;28;20025;-60
2023/09/10 04:25:25;;;;;;;10.88;9.27;;;;;;;;;;5055317;28;20372;-60
2023/09/10 04:27:51;;;;;;;10.93;9.68;;;;;;;;;;5055153;28;20450;-60
2023/09/10 04:30:17;;;;;;;11.75;9.18;;;;;;;;;;5055188;28;20372;-60
2023/09/10 04:32:43;;;;;;;12.88;9.18;;;;;;;;;;5055095;28;20088;-60
2023/09/10 04:35:10;;;;;;;9.57;8.65;;;;;;;;;;5055522;28;20048;-60
2023/09/10 04:37:36;;;;;;;11.25;10.18;;;;;;;;;;5055196;28;20398;-60
2023/09/10 04:40:07;;;;;;;10.52;9.52;;;;;;;;;;5055650;28;20025;-60
2023/09/10 04:42:33;;;;;;;11.02;9.48;;;;;;;;;;5055300;28;20420;-60
2023/09/10 04:44:59;;;;;;;14.38;10.35;;;;;;;;;;5055488;28;20104;-60
2023/09/10 04:47:25;;;;;;;11.13;9.82;;;;;;;;;;5054710;28;20052;-60
2023/09/10 04:49:51;;;;;;;10.27;9.20;;;;;;;;;;5055267;28;20021;-60
2023/09/10 04:52:17;;;;;;;13.07;10.18;;;;;;;;;;5054769;28;20025;-60
2023/09/10 04:54:43;;;;;;;13.52;9.73;;;;;;;;;;5054480;28;20104;-61
2023/09/10 04:57:10;;;;;;;10.32;9.20;;;;;;;;;;5054555;28;20025;-61
2023/09/10 04:59:36;;;;;;;11.68;10.02;;;;;;;;;;5055195;28;20410;-59
2023/09/10 05:02:04;;;;;;;9.85;8.85;;;;;;;;;;5054585;28;20029;-58
2023/09/10 05:04:30;;;;;;;10.73;9.63;;;;;;;;;;5054572;28;20021;-61
2023/09/10 05:06:56;;;;;;;9.45;8.55;;;;;;;;;;5054571;28;20375;-61
2023/09/10 05:09:22;;;;;;;10.75;9.65;;;;;;;;;;5055101;28;20118;-60
2023/09/10 05:11:48;;;;;;;10.65;9.23;;;;;;;;;;5054974;28;20420;-61
2023/09/10 05:14:14;;;;;;;12.75;9.45;;;;;;;;;;5054804;28;20064;-61
2023/09/10 05:16:40;;;;;;;11.50;9.95;;;;;;;;;;5054414;28;20031;-61
2023/09/10 05:19:06;;;;;;;11.77;9.50;;;;;;;;;;5054687;28;20438;-61
2023/09/10 05:21:32;;;;;;;9.57;8.50;;;;;;;;;;5054938;28;20455;-58
2023/09/10 05:23:58;;;;;;;10.70;9.65;;;;;;;;;;5054263;28;20025;-59
2023/09/10 05:26:24;;;;;;;10.23;9.23;;;;;;;;;;5054701;28;20055;-59
2023/09/10 05:28:50;;;;;;;11.77;9.43;;;;;;;;;;5054162;28;20486;-59
2023/09/10 05:31:15;;;;;;;12.52;8.93;;;;;;;;;;5054425;28;20025;-59
2023/09/10 05:33:41;;;;;;;9.32;8.40;;;;;;;;;;5054466;28;20036;-59
2023/09/10 05:36:07;;;;;;;10.27;8.43;;;;;;;;;;5054331;28;20017;-60
2023/09/10 05:38:33;;;;;;;10.40;8.57;;;;;;;;;;5054266;28;20017;-59
2023/09/10 05:41:04;;;;;;;12.38;8.88;;;;;;;;;;5054559;28;20484;-59
2023/09/10 05:43:33;;;;;;;10.85;9.75;;;;;;;;;;5053554;28;20613;-59
2023/09/10 05:45:58;;;;;;;9.65;8.38;;;;;;;;;;5053957;28;20040;-59
2023/09/10 05:48:24;;;;;;;9.13;8.18;;;;;;;;;;5054049;28;20021;-60
2023/09/10 05:50:55;;;;;;;9.57;8.57;;;;;;;;;;5054281;28;20021;-60
2023/09/10 05:53:21;;;;;;;13.50;7.88;;;;;;;;;;5054509;28;20467;-59
2023/09/10 05:55:47;;;;;;;11.02;7.63;;;;;;;;;;5053587;28;20021;-60
2023/09/10 05:58:14;;;;;;;10.00;8.75;;;;;;;;;;5054148;28;20017;-59
2023/09/10 06:00:40;;;;;;;9.65;7.90;;;;;;;;;;5054171;28;20028;-60
2023/09/10 06:03:09;;;;;;;9.80;8.80;;;;;;;;;;5053557;28;20402;-59
2023/09/10 06:05:35;;;;;;;9.05;7.88;;;;;;;;;;5053971;28;20025;-59
2023/09/10 06:08:01;;;;;;;8.93;7.90;;;;;;;;;;5052994;28;20071;-59
2023/09/10 06:10:27;;;;;;;9.85;8.85;;;;;;;;;;5053552;28;20029;-59
2023/09/10 06:12:53;;;;;;;9.40;8.50;;;;;;;;;;5053500;28;20029;-59
2023/09/10 06:15:19;;;;;;;8.95;7.68;;;;;;;;;;5053849;28;20473;-59
2023/09/10 06:17:45;;;;;;;9.30;8.05;;;;;;;;;;5054113;28;20109;-59
2023/09/10 06:20:11;;;;;;;11.63;9.25;;;;;;;;;;5053920;28;20120;-59
2023/09/10 06:22:37;;;;;;;9.10;7.97;;;;;;;;;;5053344;28;20053;-60
2023/09/10 06:25:03;;;;;;;9.90;8.90;;;;;;;;;;5053257;28;20455;-59
2023/09/10 06:27:29;;;;;;;12.30;9.98;;;;;;;;;;5053685;28;20029;-59
2023/09/10 06:29:55;;;;;;;10.45;9.20;;;;;;;;;;5053884;28;20013;-59
2023/09/10 06:32:21;;;;;;;10.43;9.35;;;;;;;;;;5053319;28;20348;-59
2023/09/10 06:34:47;;;;;;;11.90;10.75;;;;;;;;;;5053275;28;20163;-59
2023/09/10 06:37:13;;;;;;;13.73;12.13;;;;;;;;;;5053087;28;20041;-59
2023/09/10 06:39:38;;;;;;;12.77;11.52;;;;;;;;;;5052984;28;20017;-59
2023/09/10 06:42:08;;;;;;;14.23;12.82;;;;;;;;;;5053216;28;20118;-59
2023/09/10 06:44:34;;;;;;;14.70;13.25;;;;;;;;;;5053662;28;20033;-59
2023/09/10 06:47:00;;;;;;;16.52;14.82;;;;;;;;;;5053955;28;20028;-59
2023/09/10 06:49:27;;;;;;;14.13;12.77;;;;;;;;;;5053507;28;20021;-59
2023/09/10 06:51:53;;;;;;;13.82;12.38;;;;;;;;;;5053252;28;20482;-59
2023/09/10 06:54:19;;;;;;;14.45;11.82;;;;;;;;;;5052844;28;20033;-59
2023/09/10 06:56:44;;;;;;;13.70;12.00;;;;;;;;;;5053817;28;20013;-59
2023/09/10 06:59:11;;;;;;;12.00;9.95;;;;;;;;;;5052758;28;20025;-59
2023/09/10 07:01:37;;;;;;;10.98;9.88;;;;;;;;;;5052926;28;20475;-59
2023/09/10 07:04:15;;;;;;;14.30;12.93;;;;;;;;;;5052984;28;20115;-59
2023/09/10 07:06:41;;;;;;;11.55;10.27;;;;;;;;;;5053510;28;20363;-59
2023/09/10 07:09:06;;;;;;;11.93;10.73;;;;;;;;;;5052672;28;20025;-59
2023/09/10 07:11:32;;;;;;;12.60;10.27;;;;;;;;;;5053295;28;20025;-59
2023/09/10 07:13:58;;;;;;;12.52;11.32;;;;;;;;;;5052708;28;20032;-59
2023/09/10 07:16:28;;;;;;;13.73;10.10;;;;;;;;;;5052809;28;20036;-60
2023/09/10 07:18:54;;;;;;;11.43;9.82;;;;;;;;;;5054473;28;20033;-59
2023/09/10 07:21:20;;;;;;;10.27;9.27;;;;;;;;;;5056139;28;20021;-59
2023/09/10 07:23:45;;;;;;;10.18;9.13;;;;;;;;;;5056014;28;20079;-59
2023/09/10 07:26:11;;;;;;;10.98;9.75;;;;;;;;;;5056379;28;20025;-59
2023/09/10 07:28:38;;;;;;;10.45;9.35;;;;;;;;;;5056881;28;20024;-59
2023/09/10 07:31:04;;;;;;;11.18;9.50;;;;;;;;;;5057207;28;20063;-59
2023/09/10 07:33:30;;;;;;;10.85;9.45;;;;;;;;;;5056310;28;20451;-59
2023/09/10 07:35:56;;;;;;;9.73;8.70;;;;;;;;;;5056824;28;20028;-59
2023/09/10 07:38:22;;;;;;;10.00;8.85;;;;;;;;;;5057425;28;20513;-60
2023/09/10 07:40:48;;;;;;;13.65;9.45;;;;;;;;;;5056766;28;20439;-60
2023/09/10 07:43:14;;;;;;;9.40;8.48;;;;;;;;;;5055848;28;20037;-60
2023/09/10 07:45:40;;;;;;;10.48;9.13;;;;;;;;;;5056612;28;20099;-60
2023/09/10 07:48:06;;;;;;;8.98;7.88;;;;;;;;;;5056268;28;20032;-59
2023/09/10 07:50:32;;;;;;;9.68;8.40;;;;;;;;;;5056640;28;20056;-59
2023/09/10 07:52:58;;;;;;;8.85;8.05;;;;;;;;;;5055907;28;20459;-60
2023/09/10 07:55:25;;;;;;;9.48;7.43;;;;;;;;;;5055383;28;20048;-59
2023/09/10 07:57:51;;;;;;;8.45;7.65;;;;;;;;;;5056273;28;20048;-59
2023/09/10 08:00:20;;;;;;;9.80;8.13;;;;;;;;;;5056376;28;20075;-59
2023/09/10 08:02:48;;;;;;;9.67;8.63;;;;;;;;;;5056299;28;20025;-59
2023/09/10 08:05:14;;;;;;;9.82;8.57;;;;;;;;;;5055698;28;20118;-59
2023/09/10 08:07:40;;;;;;;8.05;7.32;;;;;;;;;;5055637;28;20029;-60
2023/09/10 08:10:06;;;;;;;9.23;7.70;;;;;;;;;;5056229;28;20025;-60
2023/09/10 08:12:32;;;;;;;10.00;7.88;;;;;;;;;;5055558;28;20117;-60
2023/09/10 08:14:58;;;;;;;8.75;7.95;;;;;;;;;;5056288;28;20119;-60
2023/09/10 08:17:24;;;;;;;9.05;8.15;;;;;;;;;;5056050;28;20029;-59
2023/09/10 08:19:49;;;;;;;8.45;7.63;;;;;;;;;;5056012;28;20033;-59
2023/09/10 08:22:16;;;;;;;9.70;7.70;;;;;;;;;;5055469;28;20496;-59
2023/09/10 08:24:42;;;;;;;9.05;8.15;;;;;;;;;;5055850;28;20033;-60
2023/09/10 08:27:12;;;;;;;10.82;7.85;;;;;;;;;;5055025;28;20378;-60
2023/09/10 08:29:38;;;;;;;14.57;7.03;;;;;;;;;;5055107;28;20029;-60
2023/09/10 08:32:04;;;;;;;7.00;6.30;;;;;;;;;;5055716;28;20029;-60
2023/09/10 08:34:30;;;;;;;7.50;6.63;;;;;;;;;;5055131;28;20506;-60
2023/09/10 08:36:56;;;;;;;8.18;7.30;;;;;;;;;;5054934;28;20045;-60
2023/09/10 08:39:22;;;;;;;9.27;6.90;;;;;;;;;;5055065;28;20021;-60
2023/09/10 08:42:11;;;;;;;8.52;6.30;;;;;;;;;;5054773;28;20029;-60
2023/09/10 08:44:40;;;;;;;10.00;6.25;;;;;;;;;;5054720;28;20029;-60
2023/09/10 08:47:07;;;;;;;6.97;6.35;;;;;;;;;;5055098;28;20059;-60
2023/09/10 08:49:40;;;;;;;8.48;6.75;;;;;;;;;;5055337;28;20033;-60
2023/09/10 08:52:07;;;;;;;7.07;6.38;;;;;;;;;;5055399;28;20170;-59
2023/09/10 08:54:33;;;;;;;7.68;6.78;;;;;;;;;;5054673;28;20493;-60
2023/09/10 08:57:00;;;;;;;7.07;6.38;;;;;;;;;;5054785;28;20025;-60
2023/09/10 08:59:26;;;;;;;9.13;6.60;;;;;;;;;;5055253;28;20013;-60
2023/09/10 09:01:52;;;;;;;7.05;6.05;;;;;;;;;;5054730;28;20036;-60
2023/09/10 09:04:19;;;;;;;9.90;6.13;;;;;;;;;;5054302;28;20360;-60
2023/09/10 09:06:48;;;;;;;7.10;5.95;;;;;;;;;;5055404;28;20021;-60
2023/09/10 09:09:16;;;;;;;7.35;6.20;;;;;;;;;;5055149;28;20051;-60
2023/09/10 09:11:43;;;;;;;6.20;5.60;;;;;;;;;;5054617;28;20025;-60
2023/09/10 09:14:10;;;;;;;8.18;6.28;;;;;;;;;;5054370;28;20368;-60
2023/09/10 09:16:39;;;;;;;7.22;6.45;;;;;;;;;;5054142;28;20028;-60
2023/09/10 09:19:09;;;;;;;7.18;6.45;;;;;;;;;;5054859;28;20013;-60
2023/09/10 09:21:36;;;;;;;8.77;6.53;;;;;;;;;;5054609;28;20036;-60
2023/09/10 09:24:03;;;;;;;9.07;7.28;;;;;;;;;;5054964;28;20028;-60
2023/09/10 09:26:30;;;;;;;6.75;6.13;;;;;;;;;;5054708;28;20079;-60
2023/09/10 09:28:56;;;;;;;7.07;6.20;;;;;;;;;;5055021;28;20025;-60
2023/09/10 09:31:23;;;;;;;7.32;6.45;;;;;;;;;;5054135;28;20472;-60
2023/09/10 09:33:49;;;;;;;8.90;5.72;;;;;;;;;;5054514;28;20033;-60
2023/09/10 09:36:15;;;;;;;8.63;6.32;;;;;;;;;;5053981;28;20025;-59
2023/09/10 09:38:42;;;;;;;5.90;5.30;;;;;;;;;;5054877;28;20017;-60
2023/09/10 09:41:08;;;;;;;6.65;4.82;;;;;;;;;;5054201;28;20410;-60
2023/09/10 09:43:35;;;;;;;10.20;5.65;;;;;;;;;;5053897;28;20373;-60
2023/09/10 09:46:04;;;;;;;5.97;5.25;;;;;;;;;;5053844;28;20375;-60
2023/09/10 09:48:30;;;;;;;5.88;5.35;;;;;;;;;;5053840;28;20021;-60
2023/09/10 09:50:57;;;;;;;6.40;5.80;;;;;;;;;;5053906;28;20028;-60
2023/09/10 09:53:23;;;;;;;7.07;5.95;;;;;;;;;;5054444;28;20028;-60
2023/09/10 09:55:49;;;;;;;8.38;6.00;;;;;;;;;;5053692;28;20107;-60
2023/09/10 09:58:18;;;;;;;6.28;5.20;;;;;;;;;;5053405;28;20484;-60
2023/09/10 10:00:44;;;;;;;9.60;5.32;;;;;;;;;;5053895;28;20036;-60
2023/09/10 10:03:11;;;;;;;6.22;5.18;;;;;;;;;;5053823;28;20051;-60
2023/09/10 10:05:37;;;;;;;8.18;4.97;;;;;;;;;;5053773;28;20459;-60
2023/09/10 10:08:07;;;;;;;6.68;5.00;;;;;;;;;;5053416;28;20052;-60
2023/09/10 10:10:35;;;;;;;9.80;4.90;;;;;;;;;;5053894;28;20033;-60
2023/09/10 10:13:03;;;;;;;5.70;5.20;;;;;;;;;;5053470;28;20115;-60
2023/09/10 10:15:30;;;;;;;6.45;4.90;;;;;;;;;;5053444;28;20439;-60
2023/09/10 10:17:57;;;;;;;7.60;5.32;;;;;;;;;;5053541;28;20021;-60
2023/09/10 10:20:23;;;;;;;6.47;5.15;;;;;;;;;;5054385;28;20102;-60
2023/09/10 10:22:49;;;;;;;6.63;5.25;;;;;;;;;;5053377;28;20079;-60
2023/09/10 10:25:15;;;;;;;5.65;4.90;;;;;;;;;;5053661;28;20443;-60
2023/09/10 10:27:46;;;;;;;5.95;5.05;;;;;;;;;;5053625;28;20033;-60
2023/09/10 10:30:12;;;;;;;6.00;5.32;;;;;;;;;;5053594;28;20065;-60
2023/09/10 10:32:39;;;;;;;5.18;4.32;;;;;;;;;;5053229;28;20096;-60
2023/09/10 10:35:05;;;;;;;11.45;5.38;;;;;;;;;;5053731;28;20113;-60
2023/09/10 10:37:50;;;;;;;6.47;4.57;;;;;;;;;;5053354;28;20048;-60
2023/09/10 10:40:20;;;;;;;5.78;4.80;;;;;;;;;;5053240;28;20079;-60
2023/09/10 10:43:04;;;;;;;6.63;5.57;;;;;;;;;;5053933;28;20025;-60
2023/09/10 10:45:31;;;;;;;6.32;4.82;;;;;;;;;;5053685;28;20124;-60
2023/09/10 10:47:59;;;;;;;5.40;4.90;;;;;;;;;;5053640;28;20021;-60
2023/09/10 10:50:26;;;;;;;5.15;4.65;;;;;;;;;;5053981;28;20061;-60
2023/09/10 10:52:56;;;;;;;7.55;5.18;;;;;;;;;;5053270;28;20025;-60
2023/09/10 10:55:22;;;;;;;5.15;4.57;;;;;;;;;;5057519;28;20025;-60
2023/09/10 10:57:48;;;;;;;5.43;4.40;;;;;;;;;;5057796;28;20052;-60
2023/09/10 11:00:15;;;;;;;6.22;5.05;;;;;;;;;;5057354;28;20021;-60
2023/09/10 11:02:41;;;;;;;5.05;4.55;;;;;;;;;;5057167;28;20029;-60
2023/09/10 11:05:07;;;;;;;7.35;6.20;;;;;;;;;;5056891;28;20056;-60
2023/09/10 11:07:34;;;;;;;5.72;5.07;;;;;;;;;;5056787;28;20470;-60
2023/09/10 11:10:20;;;;;;;7.13;5.20;;;;;;;;;;5057365;28;20021;-61
2023/09/10 11:13:06;;;;;;;5.75;5.25;;;;;;;;;;5056664;28;20024;-60
2023/09/10 11:15:32;;;;;;;5.70;5.15;;;;;;;;;;5057188;28;20033;-60
2023/09/10 11:18:17;;;;;;;6.47;5.05;;;;;;;;;;5056552;28;20378;-60
2023/09/10 11:20:49;;;;;;;5.88;5.28;;;;;;;;;;5056346;28;20497;-59
2023/09/10 11:23:15;;;;;;;11.45;5.57;;;;;;;;;;5056487;28;20028;-59
2023/09/10 11:25:42;;;;;;;6.22;5.40;;;;;;;;;;5056529;28;20025;-59
2023/09/10 11:28:26;;;;;;;12.00;5.43;;;;;;;;;;5056349;28;20052;-60
2023/09/10 11:30:52;;;;;;;7.35;5.25;;;;;;;;;;5056916;28;20036;-60
2023/09/10 11:33:29;;;;;;;5.22;4.72;;;;;;;;;;5055994;28;20017;-60
2023/09/10 11:35:57;;;;;;;6.43;5.82;;;;;;;;;;5056698;28;20025;-60
2023/09/10 11:38:25;;;;;;;9.73;6.25;;;;;;;;;;5056467;28;20041;-60
2023/09/10 11:40:51;;;;;;;6.05;5.45;;;;;;;;;;5056482;28;20028;-60
2023/09/10 11:43:17;;;;;;;7.15;5.80;;;;;;;;;;5056186;28;20021;-60
2023/09/10 11:45:44;;;;;;;6.55;5.53;;;;;;;;;;5055690;28;20024;-60
2023/09/10 11:48:10;;;;;;;8.68;5.07;;;;;;;;;;5055478;28;20526;-60
2023/09/10 11:50:36;;;;;;;6.97;5.75;;;;;;;;;;5056531;28;20116;-60
2023/09/10 11:53:02;;;;;;;7.90;5.57;;;;;;;;;;5055851;28;20061;-60
2023/09/10 11:55:27;;;;;;;5.75;5.22;;;;;;;;;;5055663;28;20028;-60
2023/09/10 11:57:54;;;;;;;6.57;5.72;;;;;;;;;;5055774;28;20035;-60
2023/09/10 12:00:22;;;;;;;5.25;4.72;;;;;;;;;;5055633;28;20029;-60
2023/09/10 12:02:48;;;;;;;7.38;5.22;;;;;;;;;;5055725;28;20032;-60
2023/09/10 12:05:14;;;;;;;10.00;5.18;;;;;;;;;;5054407;28;20029;-60
2023/09/10 12:07:43;;;;;;;6.72;5.15;;;;;;;;;;5055546;28;20052;-60
2023/09/10 12:10:09;;;;;;;5.40;4.65;;;;;;;;;;5055537;28;20029;-60
2023/09/10 12:12:36;;;;;;;4.97;4.45;;;;;;;;;;5055455;28;20056;-60
2023/09/10 12:15:03;;;;;;;7.80;5.15;;;;;;;;;;5055368;28;20025;-60
2023/09/10 12:17:29;;;;;;;9.65;5.68;;;;;;;;;;5055472;28;20021;-60
2023/09/10 12:19:55;;;;;;;9.07;5.65;;;;;;;;;;5055085;28;20028;-60
2023/09/10 12:22:21;;;;;;;6.97;5.50;;;;;;;;;;5055051;28;20021;-60
2023/09/10 12:24:47;;;;;;;6.97;5.28;;;;;;;;;;5055676;28;20465;-60
2023/09/10 12:27:13;;;;;;;5.82;5.20;;;;;;;;;;5055162;28;20032;-60
2023/09/10 12:29:42;;;;;;;7.47;5.05;;;;;;;;;;5055851;28;20031;-60
2023/09/10 12:32:09;;;;;;;5.70;5.10;;;;;;;;;;5055087;28;20082;-60
2023/09/10 12:34:37;;;;;;;10.85;5.45;;;;;;;;;;5055622;28;20033;-60
2023/09/10 12:37:03;;;;;;;8.38;4.80;;;;;;;;;;5055113;28;20049;-60
2023/09/10 12:39:33;;;;;;;5.80;5.20;;;;;;;;;;5055380;28;20021;-60
2023/09/10 12:42:01;;;;;;;5.93;4.85;;;;;;;;;;5055049;28;20488;-60
2023/09/10 12:44:29;;;;;;;5.40;4.85;;;;;;;;;;5054968;28;20419;-60
2023/09/10 12:46:55;;;;;;;5.63;5.03;;;;;;;;;;5055369;28;20033;-60
2023/09/10 12:49:21;;;;;;;6.28;5.00;;;;;;;;;;5055418;28;20021;-60
2023/09/10 12:51:47;;;;;;;7.28;4.78;;;;;;;;;;5054908;28;20025;-60
2023/09/10 12:54:14;;;;;;;6.75;5.43;;;;;;;;;;5054531;28;20048;-60
2023/09/10 12:56:43;;;;;;;5.32;4.82;;;;;;;;;;5054978;28;20478;-60
2023/09/10 12:59:09;;;;;;;5.18;4.57;;;;;;;;;;5054649;28;20024;-60
2023/09/10 13:01:39;;;;;;;7.22;4.75;;;;;;;;;;5054594;28;20021;-60
2023/09/10 13:04:05;;;;;;;5.47;4.95;;;;;;;;;;5054487;28;20091;-60
2023/09/10 13:06:31;;;;;;;7.60;5.97;;;;;;;;;;5054474;28;20068;-60
2023/09/10 13:08:57;;;;;;;4.95;4.40;;;;;;;;;;5054704;28;20060;-60
2023/09/10 13:11:23;;;;;;;6.25;4.47;;;;;;;;;;5054787;28;20029;-60
2023/09/10 13:13:49;;;;;;;6.03;5.10;;;;;;;;;;5054685;28;20398;-60
2023/09/10 13:16:15;;;;;;;6.68;5.40;;;;;;;;;;5053855;28;20040;-60
2023/09/10 13:18:41;;;;;;;6.47;5.32;;;;;;;;;;5054240;28;20466;-60
2023/09/10 13:21:07;;;;;;;8.30;4.63;;;;;;;;;;5054614;28;20017;-60
2023/09/10 13:23:33;;;;;;;8.38;5.25;;;;;;;;;;5053767;28;20082;-60
2023/09/10 13:25:59;;;;;;;5.65;5.03;;;;;;;;;;5054525;28;20021;-60
2023/09/10 13:28:24;;;;;;;5.28;4.43;;;;;;;;;;5054143;28;20029;-60
2023/09/10 13:30:50;;;;;;;9.80;8.88;;;;;;;;;;5054162;28;20147;-60
2023/09/10 13:33:16;;;;;;;10.32;9.32;;;;;;;;;;5053640;28;20421;-60
2023/09/10 13:35:42;;;;;;;6.53;5.82;;;;;;;;;;5054310;28;20086;-60
2023/09/10 13:38:08;;;;;;;5.30;4.80;;;;;;;;;;5054767;28;20075;-60
2023/09/10 13:40:39;;;;;;;5.88;4.40;;;;;;;;;;5054478;28;20017;-60
2023/09/10 13:43:05;;;;;;;6.13;5.53;;;;;;;;;;5054390;28;20078;-60
2023/09/10 13:45:31;;;;;;;5.47;4.75;;;;;;;;;;5053873;28;20103;-60
2023/09/10 13:47:57;;;;;;;5.38;4.88;;;;;;;;;;5053783;28;20167;-60
2023/09/10 13:50:23;;;;;;;5.82;5.28;;;;;;;;;;5054399;28;20024;-60
2023/09/10 13:52:49;;;;;;;12.02;10.80;;;;;;;;;;5054060;28;20017;-60
2023/09/10 13:55:15;;;;;;;13.10;11.70;;;;;;;;;;5053414;28;20112;-60
2023/09/10 13:57:41;;;;;;;6.30;5.70;;;;;;;;;;5053439;28;20114;-60
2023/09/10 14:00:08;;;;;;;6.47;5.78;;;;;;;;;;5054165;28;20406;-60
2023/09/10 14:02:34;;;;;;;5.70;4.88;;;;;;;;;;5053543;28;20025;-60
2023/09/10 14:05:00;;;;;;;5.90;5.30;;;;;;;;;;5053506;28;20075;-60
2023/09/10 14:07:26;;;;;;;9.73;5.68;;;;;;;;;;5053822;28;20402;-60
2023/09/10 14:09:52;;;;;;;5.72;5.20;;;;;;;;;;5053759;28;20028;-60
2023/09/10 14:12:18;;;;;;;6.53;4.78;;;;;;;;;;5053449;28;20021;-60
2023/09/10 14:14:44;;;;;;;7.45;4.72;;;;;;;;;;5054141;28;20352;-60
2023/09/10 14:17:10;;;;;;;5.45;4.95;;;;;;;;;;5053383;28;20467;-60
2023/09/10 14:19:36;;;;;;;6.05;4.88;;;;;;;;;;5053965;28;20025;-60
2023/09/10 14:22:02;;;;;;;6.85;4.80;;;;;;;;;;5053365;28;20028;-60
2023/09/10 14:24:29;;;;;;;6.45;4.43;;;;;;;;;;5053385;28;20026;-60
2023/09/10 14:26:55;;;;;;;5.07;4.57;;;;;;;;;;5052858;28;20493;-60
2023/09/10 14:29:22;;;;;;;6.10;5.50;;;;;;;;;;5056835;28;20025;-60
2023/09/10 14:31:47;;;;;;;7.53;5.13;;;;;;;;;;5057222;28;20032;-60
2023/09/10 14:34:13;;;;;;;5.68;5.07;;;;;;;;;;5057462;28;20398;-60
2023/09/10 14:36:39;;;;;;;4.60;4.20;;;;;;;;;;5057401;28;20053;-60